sensor_id;sensor_type;location;lat;lon;timestamp;P1;durP1;ratioP1;P2;durP2;ratioP2
57331;SDS011;43164;50.908;18.092;2023-08-24T00:00:33;3.90;;;1.70;;
57331;SDS011;43164;50.908;18.092;2023-08-24T00:03:02;6.80;;;2.90;;
57331;SDS011;43164;50.908;18.092;2023-08-24T00:05:35;4.60;;;2.30;;
57331;SDS011;43164;50.908;18.092;2023-08-24T00:08:09;4.70;;;2.30;;
57331;SDS011;43164;50.908;18.092;2023-08-24T00:10:38;6.90;;;2.70;;
57331;SDS011;43164;50.908;18.092;2023-08-24T00:13:06;7.40;;;2.60;;
57331;SDS011;43164;50.908;18.092;2023-08-24T00:15:34;7.10;;;2.90;;
57331;SDS011;43164;50.908;18.092;2023-08-24T00:18:03;5.10;;;2.40;;
57331;SDS011;43164;50.908;18.092;2023-08-24T00:20:32;4.30;;;2.10;;
57331;SDS011;43164;50.908;18.092;2023-08-24T00:22:59;6.50;;;2.80;;
57331;SDS011;43164;50.908;18.092;2023-08-24T00:25:29;5.50;;;2.50;;
57331;SDS011;43164;50.908;18.092;2023-08-24T00:27:58;4.30;;;2.00;;
57331;SDS011;43164;50.908;18.092;2023-08-24T00:30:26;6.70;;;2.70;;
57331;SDS011;43164;50.908;18.092;2023-08-24T00:32:54;8.80;;;2.40;;
57331;SDS011;43164;50.908;18.092;2023-08-24T00:35:22;4.20;;;2.20;;
57331;SDS011;43164;50.908;18.092;2023-08-24T00:37:50;5.40;;;2.40;;
57331;SDS011;43164;50.908;18.092;2023-08-24T00:40:18;7.80;;;2.50;;
57331;SDS011;43164;50.908;18.092;2023-08-24T00:42:45;7.60;;;2.60;;
57331;SDS011;43164;50.908;18.092;2023-08-24T00:45:13;4.00;;;2.00;;
57331;SDS011;43164;50.908;18.092;2023-08-24T00:47:45;4.60;;;2.10;;
57331;SDS011;43164;50.908;18.092;2023-08-24T00:50:15;4.00;;;1.70;;
57331;SDS011;43164;50.908;18.092;2023-08-24T00:52:44;4.20;;;1.70;;
57331;SDS011;43164;50.908;18.092;2023-08-24T00:55:13;4.20;;;1.70;;
57331;SDS011;43164;50.908;18.092;2023-08-24T00:57:42;5.90;;;2.10;;
57331;SDS011;43164;50.908;18.092;2023-08-24T01:00:11;4.00;;;1.70;;
57331;SDS011;43164;50.908;18.092;2023-08-24T01:02:43;5.70;;;1.80;;
57331;SDS011;43164;50.908;18.092;2023-08-24T01:05:11;5.00;;;1.80;;
57331;SDS011;43164;50.908;18.092;2023-08-24T01:07:40;3.90;;;1.90;;
57331;SDS011;43164;50.908;18.092;2023-08-24T01:10:09;4.70;;;1.70;;
57331;SDS011;43164;50.908;18.092;2023-08-24T01:12:42;4.10;;;1.70;;
57331;SDS011;43164;50.908;18.092;2023-08-24T01:15:40;5.30;;;1.80;;
57331;SDS011;43164;50.908;18.092;2023-08-24T01:18:18;5.60;;;2.20;;
57331;SDS011;43164;50.908;18.092;2023-08-24T01:20:55;4.30;;;1.70;;
57331;SDS011;43164;50.908;18.092;2023-08-24T01:23:57;4.40;;;1.80;;
57331;SDS011;43164;50.908;18.092;2023-08-24T01:26:23;5.20;;;2.10;;
57331;SDS011;43164;50.908;18.092;2023-08-24T01:28:51;3.80;;;1.70;;
57331;SDS011;43164;50.908;18.092;2023-08-24T01:31:20;5.00;;;2.40;;
57331;SDS011;43164;50.908;18.092;2023-08-24T01:33:48;4.50;;;2.30;;
57331;SDS011;43164;50.908;18.092;2023-08-24T01:36:17;4.30;;;1.50;;
57331;SDS011;43164;50.908;18.092;2023-08-24T01:38:53;3.30;;;1.60;;
57331;SDS011;43164;50.908;18.092;2023-08-24T01:41:38;4.90;;;1.90;;
57331;SDS011;43164;50.908;18.092;2023-08-24T01:44:12;3.90;;;1.90;;
57331;SDS011;43164;50.908;18.092;2023-08-24T01:46:42;4.00;;;1.90;;
57331;SDS011;43164;50.908;18.092;2023-08-24T01:49:12;5.40;;;2.00;;
57331;SDS011;43164;50.908;18.092;2023-08-24T01:51:45;4.80;;;2.10;;
57331;SDS011;43164;50.908;18.092;2023-08-24T01:54:13;4.90;;;1.80;;
57331;SDS011;43164;50.908;18.092;2023-08-24T01:56:41;4.60;;;2.30;;
57331;SDS011;43164;50.908;18.092;2023-08-24T01:59:09;4.40;;;2.00;;
57331;SDS011;43164;50.908;18.092;2023-08-24T02:01:37;6.50;;;2.60;;
57331;SDS011;43164;50.908;18.092;2023-08-24T02:04:04;5.10;;;2.50;;
57331;SDS011;43164;50.908;18.092;2023-08-24T02:06:32;5.30;;;2.10;;
57331;SDS011;43164;50.908;18.092;2023-08-24T02:09:00;6.70;;;2.30;;
57331;SDS011;43164;50.908;18.092;2023-08-24T02:14:38;4.10;;;2.50;;
57331;SDS011;43164;50.908;18.092;2023-08-24T02:17:06;4.60;;;2.50;;
57331;SDS011;43164;50.908;18.092;2023-08-24T02:19:34;5.20;;;2.20;;
57331;SDS011;43164;50.908;18.092;2023-08-24T02:22:02;6.20;;;2.50;;
57331;SDS011;43164;50.908;18.092;2023-08-24T02:24:30;4.10;;;2.10;;
57331;SDS011;43164;50.908;18.092;2023-08-24T02:26:59;5.90;;;2.00;;
57331;SDS011;43164;50.908;18.092;2023-08-24T02:29:27;5.10;;;1.90;;
57331;SDS011;43164;50.908;18.092;2023-08-24T02:31:57;5.50;;;1.70;;
57331;SDS011;43164;50.908;18.092;2023-08-24T02:34:25;4.50;;;2.00;;
57331;SDS011;43164;50.908;18.092;2023-08-24T02:36:54;4.60;;;2.30;;
57331;SDS011;43164;50.908;18.092;2023-08-24T02:39:24;7.00;;;2.30;;
57331;SDS011;43164;50.908;18.092;2023-08-24T02:41:54;5.20;;;2.10;;
57331;SDS011;43164;50.908;18.092;2023-08-24T02:44:24;5.00;;;2.10;;
57331;SDS011;43164;50.908;18.092;2023-08-24T02:46:54;6.40;;;2.30;;
57331;SDS011;43164;50.908;18.092;2023-08-24T02:49:24;5.10;;;2.10;;
57331;SDS011;43164;50.908;18.092;2023-08-24T02:51:52;6.50;;;2.30;;
57331;SDS011;43164;50.908;18.092;2023-08-24T02:54:20;5.70;;;2.30;;
57331;SDS011;43164;50.908;18.092;2023-08-24T02:56:48;5.50;;;2.70;;
57331;SDS011;43164;50.908;18.092;2023-08-24T02:59:16;6.60;;;2.40;;
57331;SDS011;43164;50.908;18.092;2023-08-24T03:01:44;5.50;;;2.50;;
57331;SDS011;43164;50.908;18.092;2023-08-24T03:04:12;5.40;;;2.50;;
57331;SDS011;43164;50.908;18.092;2023-08-24T03:06:42;6.20;;;2.40;;
57331;SDS011;43164;50.908;18.092;2023-08-24T03:09:11;7.20;;;2.90;;
57331;SDS011;43164;50.908;18.092;2023-08-24T03:11:40;5.00;;;2.60;;
57331;SDS011;43164;50.908;18.092;2023-08-24T03:14:08;5.90;;;2.60;;
57331;SDS011;43164;50.908;18.092;2023-08-24T03:16:37;7.40;;;2.40;;
57331;SDS011;43164;50.908;18.092;2023-08-24T03:19:06;7.20;;;2.60;;
57331;SDS011;43164;50.908;18.092;2023-08-24T03:21:34;5.60;;;2.60;;
57331;SDS011;43164;50.908;18.092;2023-08-24T03:24:02;4.80;;;2.30;;
57331;SDS011;43164;50.908;18.092;2023-08-24T03:26:31;5.30;;;2.30;;
57331;SDS011;43164;50.908;18.092;2023-08-24T03:29:00;5.10;;;2.80;;
57331;SDS011;43164;50.908;18.092;2023-08-24T03:31:28;6.30;;;2.50;;
57331;SDS011;43164;50.908;18.092;2023-08-24T03:33:57;7.70;;;2.90;;
57331;SDS011;43164;50.908;18.092;2023-08-24T03:36:28;8.40;;;3.00;;
57331;SDS011;43164;50.908;18.092;2023-08-24T03:38:57;3.60;;;2.20;;
57331;SDS011;43164;50.908;18.092;2023-08-24T03:41:25;6.10;;;3.10;;
57331;SDS011;43164;50.908;18.092;2023-08-24T03:43:54;7.50;;;2.50;;
57331;SDS011;43164;50.908;18.092;2023-08-24T03:46:23;4.80;;;2.50;;
57331;SDS011;43164;50.908;18.092;2023-08-24T03:58:47;6.50;;;2.70;;
57331;SDS011;43164;50.908;18.092;2023-08-24T04:01:18;4.70;;;1.90;;
57331;SDS011;43164;50.908;18.092;2023-08-24T04:06:46;6.90;;;2.60;;
57331;SDS011;43164;50.908;18.092;2023-08-24T04:09:17;5.00;;;2.50;;
57331;SDS011;43164;50.908;18.092;2023-08-24T04:18:33;4.80;;;2.10;;
57331;SDS011;43164;50.908;18.092;2023-08-24T04:21:06;4.70;;;1.80;;
57331;SDS011;43164;50.908;18.092;2023-08-24T04:23:36;4.10;;;2.10;;
57331;SDS011;43164;50.908;18.092;2023-08-24T04:26:33;5.20;;;2.00;;
57331;SDS011;43164;50.908;18.092;2023-08-24T04:38:29;4.60;;;1.70;;
57331;SDS011;43164;50.908;18.092;2023-08-24T04:41:14;4.60;;;1.60;;
57331;SDS011;43164;50.908;18.092;2023-08-24T04:47:17;5.50;;;1.70;;
57331;SDS011;43164;50.908;18.092;2023-08-24T04:49:55;4.10;;;1.50;;
57331;SDS011;43164;50.908;18.092;2023-08-24T05:10:47;4.50;;;1.70;;
57331;SDS011;43164;50.908;18.092;2023-08-24T05:34:57;3.90;;;1.50;;
57331;SDS011;43164;50.908;18.092;2023-08-24T05:37:56;5.10;;;2.00;;
57331;SDS011;43164;50.908;18.092;2023-08-24T05:40:37;5.30;;;1.80;;
57331;SDS011;43164;50.908;18.092;2023-08-24T05:57:54;4.30;;;2.00;;
57331;SDS011;43164;50.908;18.092;2023-08-24T06:04:11;5.50;;;2.40;;
57331;SDS011;43164;50.908;18.092;2023-08-24T06:07:36;5.00;;;2.40;;
57331;SDS011;43164;50.908;18.092;2023-08-24T06:30:54;6.20;;;1.90;;
57331;SDS011;43164;50.908;18.092;2023-08-24T06:40:51;5.80;;;2.00;;
57331;SDS011;43164;50.908;18.092;2023-08-24T06:47:20;6.90;;;1.90;;
57331;SDS011;43164;50.908;18.092;2023-08-24T07:18:58;6.80;;;2.60;;
57331;SDS011;43164;50.908;18.092;2023-08-24T10:11:16;6.40;;;1.70;;
57331;SDS011;43164;50.908;18.092;2023-08-24T10:21:54;2.70;;;1.00;;
57331;SDS011;43164;50.908;18.092;2023-08-24T10:43:08;2.70;;;0.90;;
57331;SDS011;43164;50.908;18.092;2023-08-24T10:57:02;4.00;;;1.10;;
57331;SDS011;43164;50.908;18.092;2023-08-24T10:59:39;4.00;;;1.10;;
57331;SDS011;43164;50.908;18.092;2023-08-24T11:02:19;4.30;;;1.30;;
57331;SDS011;43164;50.908;18.092;2023-08-24T11:34:01;5.60;;;1.00;;
57331;SDS011;43164;50.908;18.092;2023-08-24T11:36:47;4.50;;;1.10;;
57331;SDS011;43164;50.908;18.092;2023-08-24T11:39:45;5.60;;;1.00;;
57331;SDS011;43164;50.908;18.092;2023-08-24T11:50:39;8.50;;;4.90;;
57331;SDS011;43164;50.908;18.092;2023-08-24T11:53:15;4.60;;;1.40;;
57331;SDS011;43164;50.908;18.092;2023-08-24T11:56:02;4.50;;;1.00;;
57331;SDS011;43164;50.908;18.092;2023-08-24T12:02:19;6.90;;;2.10;;
57331;SDS011;43164;50.908;18.092;2023-08-24T12:05:05;5.40;;;1.50;;
57331;SDS011;43164;50.908;18.092;2023-08-24T12:09:00;3.10;;;1.00;;
57331;SDS011;43164;50.908;18.092;2023-08-24T12:11:28;4.50;;;1.00;;
57331;SDS011;43164;50.908;18.092;2023-08-24T12:14:16;2.80;;;0.90;;
57331;SDS011;43164;50.908;18.092;2023-08-24T12:21:31;5.40;;;1.00;;
57331;SDS011;43164;50.908;18.092;2023-08-24T12:49:12;4.10;;;1.10;;
57331;SDS011;43164;50.908;18.092;2023-08-24T12:51:42;3.70;;;1.30;;
57331;SDS011;43164;50.908;18.092;2023-08-24T12:54:12;4.10;;;1.00;;
57331;SDS011;43164;50.908;18.092;2023-08-24T12:56:51;2.30;;;0.90;;
57331;SDS011;43164;50.908;18.092;2023-08-24T12:59:30;5.50;;;1.20;;
57331;SDS011;43164;50.908;18.092;2023-08-24T13:02:06;3.40;;;0.90;;
57331;SDS011;43164;50.908;18.092;2023-08-24T13:04:39;3.90;;;1.10;;
57331;SDS011;43164;50.908;18.092;2023-08-24T13:07:14;3.30;;;1.10;;
57331;SDS011;43164;50.908;18.092;2023-08-24T13:10:08;2.80;;;1.00;;
57331;SDS011;43164;50.908;18.092;2023-08-24T13:12:50;4.90;;;1.10;;
57331;SDS011;43164;50.908;18.092;2023-08-24T13:15:19;4.40;;;1.20;;
57331;SDS011;43164;50.908;18.092;2023-08-24T13:17:51;4.30;;;1.10;;
57331;SDS011;43164;50.908;18.092;2023-08-24T13:20:21;4.20;;;1.10;;
57331;SDS011;43164;50.908;18.092;2023-08-24T13:22:54;4.10;;;1.20;;
57331;SDS011;43164;50.908;18.092;2023-08-24T13:25:27;2.00;;;0.80;;
57331;SDS011;43164;50.908;18.092;2023-08-24T13:27:59;4.70;;;0.90;;
57331;SDS011;43164;50.908;18.092;2023-08-24T13:30:34;3.70;;;1.40;;
57331;SDS011;43164;50.908;18.092;2023-08-24T13:33:08;4.40;;;1.20;;
57331;SDS011;43164;50.908;18.092;2023-08-24T13:35:47;4.10;;;1.20;;
57331;SDS011;43164;50.908;18.092;2023-08-24T13:38:22;3.60;;;1.30;;
57331;SDS011;43164;50.908;18.092;2023-08-24T13:40:56;4.80;;;1.10;;
57331;SDS011;43164;50.908;18.092;2023-08-24T13:43:33;3.70;;;1.10;;
57331;SDS011;43164;50.908;18.092;2023-08-24T13:46:07;6.50;;;1.30;;
57331;SDS011;43164;50.908;18.092;2023-08-24T13:48:46;3.50;;;1.10;;
57331;SDS011;43164;50.908;18.092;2023-08-24T13:51:26;5.30;;;1.10;;
57331;SDS011;43164;50.908;18.092;2023-08-24T13:55:04;6.00;;;1.30;;
57331;SDS011;43164;50.908;18.092;2023-08-24T13:57:35;3.70;;;1.30;;
57331;SDS011;43164;50.908;18.092;2023-08-24T14:00:05;4.10;;;1.10;;
57331;SDS011;43164;50.908;18.092;2023-08-24T14:02:37;3.10;;;1.00;;
57331;SDS011;43164;50.908;18.092;2023-08-24T14:05:09;4.10;;;0.90;;
57331;SDS011;43164;50.908;18.092;2023-08-24T14:25:23;3.90;;;1.00;;
57331;SDS011;43164;50.908;18.092;2023-08-24T14:39:01;4.10;;;1.00;;
57331;SDS011;43164;50.908;18.092;2023-08-24T14:41:32;5.60;;;1.10;;
57331;SDS011;43164;50.908;18.092;2023-08-24T14:44:09;3.50;;;1.20;;
57331;SDS011;43164;50.908;18.092;2023-08-24T16:51:41;5.50;;;1.60;;
57331;SDS011;43164;50.908;18.092;2023-08-24T16:54:30;3.00;;;1.30;;
57331;SDS011;43164;50.908;18.092;2023-08-24T17:17:35;4.80;;;2.10;;
57331;SDS011;43164;50.908;18.092;2023-08-24T17:20:11;3.50;;;1.80;;
57331;SDS011;43164;50.908;18.092;2023-08-24T17:22:56;5.20;;;1.90;;
57331;SDS011;43164;50.908;18.092;2023-08-24T17:25:44;4.50;;;2.00;;
57331;SDS011;43164;50.908;18.092;2023-08-24T17:28:24;4.50;;;1.80;;
57331;SDS011;43164;50.908;18.092;2023-08-24T17:30:56;6.20;;;1.90;;
57331;SDS011;43164;50.908;18.092;2023-08-24T17:33:28;4.70;;;2.00;;
57331;SDS011;43164;50.908;18.092;2023-08-24T17:35:58;4.60;;;2.10;;
57331;SDS011;43164;50.908;18.092;2023-08-24T17:38:30;5.50;;;2.50;;
57331;SDS011;43164;50.908;18.092;2023-08-24T17:41:02;4.40;;;2.20;;
57331;SDS011;43164;50.908;18.092;2023-08-24T17:43:33;5.90;;;2.50;;
57331;SDS011;43164;50.908;18.092;2023-08-24T17:46:08;4.30;;;2.10;;
57331;SDS011;43164;50.908;18.092;2023-08-24T17:48:39;4.40;;;2.30;;
57331;SDS011;43164;50.908;18.092;2023-08-24T17:51:10;5.60;;;2.70;;
57331;SDS011;43164;50.908;18.092;2023-08-24T17:53:42;8.70;;;2.80;;
57331;SDS011;43164;50.908;18.092;2023-08-24T17:56:12;4.10;;;2.30;;
57331;SDS011;43164;50.908;18.092;2023-08-24T17:58:54;4.10;;;2.20;;
57331;SDS011;43164;50.908;18.092;2023-08-24T18:01:23;5.20;;;2.50;;
57331;SDS011;43164;50.908;18.092;2023-08-24T18:03:53;5.00;;;2.80;;
57331;SDS011;43164;50.908;18.092;2023-08-24T18:06:23;7.00;;;2.70;;
57331;SDS011;43164;50.908;18.092;2023-08-24T18:08:53;5.10;;;2.70;;
57331;SDS011;43164;50.908;18.092;2023-08-24T18:11:22;6.10;;;3.10;;
57331;SDS011;43164;50.908;18.092;2023-08-24T18:13:50;5.90;;;2.90;;
57331;SDS011;43164;50.908;18.092;2023-08-24T18:16:19;5.90;;;3.00;;
57331;SDS011;43164;50.908;18.092;2023-08-24T18:18:49;5.00;;;2.50;;
57331;SDS011;43164;50.908;18.092;2023-08-24T18:21:17;6.70;;;2.90;;
57331;SDS011;43164;50.908;18.092;2023-08-24T18:23:45;6.80;;;3.20;;
57331;SDS011;43164;50.908;18.092;2023-08-24T18:26:14;7.10;;;3.10;;
57331;SDS011;43164;50.908;18.092;2023-08-24T18:28:42;8.70;;;3.30;;
57331;SDS011;43164;50.908;18.092;2023-08-24T18:31:11;7.50;;;3.70;;
57331;SDS011;43164;50.908;18.092;2023-08-24T18:33:41;6.40;;;3.10;;
57331;SDS011;43164;50.908;18.092;2023-08-24T18:36:09;5.50;;;3.10;;
57331;SDS011;43164;50.908;18.092;2023-08-24T18:38:37;6.70;;;3.60;;
57331;SDS011;43164;50.908;18.092;2023-08-24T18:41:06;6.10;;;3.90;;
57331;SDS011;43164;50.908;18.092;2023-08-24T18:43:35;7.90;;;4.40;;
57331;SDS011;43164;50.908;18.092;2023-08-24T18:46:03;6.10;;;4.00;;
57331;SDS011;43164;50.908;18.092;2023-08-24T18:48:31;6.70;;;4.10;;
57331;SDS011;43164;50.908;18.092;2023-08-24T18:50:59;8.70;;;4.40;;
57331;SDS011;43164;50.908;18.092;2023-08-24T18:53:27;6.70;;;3.70;;
57331;SDS011;43164;50.908;18.092;2023-08-24T18:55:54;10.50;;;3.90;;
57331;SDS011;43164;50.908;18.092;2023-08-24T18:58:22;8.70;;;4.20;;
57331;SDS011;43164;50.908;18.092;2023-08-24T19:00:52;6.90;;;3.90;;
57331;SDS011;43164;50.908;18.092;2023-08-24T19:03:21;7.80;;;3.90;;
57331;SDS011;43164;50.908;18.092;2023-08-24T19:05:49;10.30;;;4.80;;
57331;SDS011;43164;50.908;18.092;2023-08-24T19:08:17;7.00;;;4.40;;
57331;SDS011;43164;50.908;18.092;2023-08-24T19:10:45;6.50;;;3.90;;
57331;SDS011;43164;50.908;18.092;2023-08-24T19:13:13;7.00;;;4.10;;
57331;SDS011;43164;50.908;18.092;2023-08-24T19:15:41;8.40;;;4.50;;
57331;SDS011;43164;50.908;18.092;2023-08-24T19:18:10;6.60;;;4.10;;
57331;SDS011;43164;50.908;18.092;2023-08-24T19:20:42;7.50;;;4.50;;
57331;SDS011;43164;50.908;18.092;2023-08-24T19:23:11;6.70;;;4.30;;
57331;SDS011;43164;50.908;18.092;2023-08-24T19:25:39;7.10;;;4.10;;
57331;SDS011;43164;50.908;18.092;2023-08-24T19:28:07;6.30;;;4.20;;
57331;SDS011;43164;50.908;18.092;2023-08-24T19:30:36;6.30;;;4.20;;
57331;SDS011;43164;50.908;18.092;2023-08-24T19:33:05;7.40;;;4.40;;
57331;SDS011;43164;50.908;18.092;2023-08-24T19:35:34;8.00;;;4.50;;
57331;SDS011;43164;50.908;18.092;2023-08-24T19:38:02;7.80;;;4.60;;
57331;SDS011;43164;50.908;18.092;2023-08-24T19:40:34;7.20;;;3.90;;
57331;SDS011;43164;50.908;18.092;2023-08-24T19:43:07;10.10;;;4.70;;
57331;SDS011;43164;50.908;18.092;2023-08-24T19:45:38;9.90;;;5.00;;
57331;SDS011;43164;50.908;18.092;2023-08-24T19:48:07;7.60;;;4.60;;
57331;SDS011;43164;50.908;18.092;2023-08-24T19:50:35;7.90;;;4.60;;
57331;SDS011;43164;50.908;18.092;2023-08-24T19:53:04;7.10;;;4.80;;
57331;SDS011;43164;50.908;18.092;2023-08-24T19:55:48;6.60;;;4.60;;
57331;SDS011;43164;50.908;18.092;2023-08-24T19:58:16;8.80;;;4.60;;
57331;SDS011;43164;50.908;18.092;2023-08-24T20:00:45;7.90;;;4.40;;
57331;SDS011;43164;50.908;18.092;2023-08-24T20:03:13;6.70;;;4.30;;
57331;SDS011;43164;50.908;18.092;2023-08-24T20:05:41;8.20;;;5.00;;
57331;SDS011;43164;50.908;18.092;2023-08-24T20:08:09;7.90;;;4.70;;
57331;SDS011;43164;50.908;18.092;2023-08-24T20:10:39;7.10;;;4.30;;
57331;SDS011;43164;50.908;18.092;2023-08-24T20:13:07;7.70;;;4.70;;
57331;SDS011;43164;50.908;18.092;2023-08-24T20:15:35;7.00;;;4.60;;
57331;SDS011;43164;50.908;18.092;2023-08-24T20:18:03;8.00;;;5.20;;
57331;SDS011;43164;50.908;18.092;2023-08-24T20:20:31;8.10;;;5.60;;
57331;SDS011;43164;50.908;18.092;2023-08-24T20:22:59;10.70;;;6.00;;
57331;SDS011;43164;50.908;18.092;2023-08-24T20:25:27;8.90;;;6.00;;
57331;SDS011;43164;50.908;18.092;2023-08-24T20:27:55;9.30;;;6.50;;
57331;SDS011;43164;50.908;18.092;2023-08-24T20:30:24;13.60;;;6.60;;
57331;SDS011;43164;50.908;18.092;2023-08-24T20:32:53;12.30;;;6.50;;
57331;SDS011;43164;50.908;18.092;2023-08-24T20:35:22;8.90;;;6.80;;
57331;SDS011;43164;50.908;18.092;2023-08-24T20:37:50;8.60;;;6.20;;
57331;SDS011;43164;50.908;18.092;2023-08-24T20:40:18;9.20;;;5.40;;
57331;SDS011;43164;50.908;18.092;2023-08-24T20:42:47;8.60;;;5.90;;
57331;SDS011;43164;50.908;18.092;2023-08-24T20:45:16;10.60;;;5.30;;
57331;SDS011;43164;50.908;18.092;2023-08-24T20:47:45;9.10;;;6.00;;
57331;SDS011;43164;50.908;18.092;2023-08-24T20:50:14;8.30;;;5.20;;
57331;SDS011;43164;50.908;18.092;2023-08-24T20:52:42;9.80;;;6.10;;
57331;SDS011;43164;50.908;18.092;2023-08-24T20:55:12;9.30;;;5.70;;
57331;SDS011;43164;50.908;18.092;2023-08-24T20:57:41;9.10;;;5.50;;
57331;SDS011;43164;50.908;18.092;2023-08-24T21:00:10;7.50;;;5.50;;
57331;SDS011;43164;50.908;18.092;2023-08-24T21:02:39;9.90;;;5.30;;
57331;SDS011;43164;50.908;18.092;2023-08-24T21:05:08;8.70;;;5.50;;
57331;SDS011;43164;50.908;18.092;2023-08-24T21:07:36;9.70;;;6.60;;
57331;SDS011;43164;50.908;18.092;2023-08-24T21:10:06;8.70;;;6.50;;
57331;SDS011;43164;50.908;18.092;2023-08-24T21:12:35;8.70;;;6.00;;
57331;SDS011;43164;50.908;18.092;2023-08-24T21:15:03;10.50;;;5.80;;
57331;SDS011;43164;50.908;18.092;2023-08-24T21:17:32;9.50;;;5.80;;
57331;SDS011;43164;50.908;18.092;2023-08-24T21:20:02;10.70;;;6.10;;
57331;SDS011;43164;50.908;18.092;2023-08-24T21:22:33;9.70;;;6.20;;
57331;SDS011;43164;50.908;18.092;2023-08-24T21:25:02;9.40;;;5.90;;
57331;SDS011;43164;50.908;18.092;2023-08-24T21:27:32;8.30;;;5.60;;
57331;SDS011;43164;50.908;18.092;2023-08-24T21:30:11;8.30;;;5.60;;
57331;SDS011;43164;50.908;18.092;2023-08-24T21:32:46;7.50;;;5.40;;
57331;SDS011;43164;50.908;18.092;2023-08-24T21:35:14;7.40;;;5.80;;
57331;SDS011;43164;50.908;18.092;2023-08-24T21:37:43;9.20;;;5.70;;
57331;SDS011;43164;50.908;18.092;2023-08-24T21:40:13;10.00;;;6.10;;
57331;SDS011;43164;50.908;18.092;2023-08-24T21:42:41;9.00;;;5.70;;
57331;SDS011;43164;50.908;18.092;2023-08-24T21:45:11;8.30;;;5.50;;
57331;SDS011;43164;50.908;18.092;2023-08-24T21:47:39;8.80;;;5.20;;
57331;SDS011;43164;50.908;18.092;2023-08-24T21:50:08;7.60;;;5.40;;
57331;SDS011;43164;50.908;18.092;2023-08-24T21:52:37;8.10;;;5.40;;
57331;SDS011;43164;50.908;18.092;2023-08-24T21:55:08;8.40;;;5.80;;
57331;SDS011;43164;50.908;18.092;2023-08-24T21:57:37;8.10;;;5.70;;
57331;SDS011;43164;50.908;18.092;2023-08-24T22:06:56;11.00;;;6.70;;
57331;SDS011;43164;50.908;18.092;2023-08-24T22:09:25;10.60;;;6.80;;
57331;SDS011;43164;50.908;18.092;2023-08-24T22:11:54;11.30;;;7.20;;
57331;SDS011;43164;50.908;18.092;2023-08-24T22:14:23;9.00;;;6.70;;
57331;SDS011;43164;50.908;18.092;2023-08-24T22:16:54;11.00;;;6.80;;
57331;SDS011;43164;50.908;18.092;2023-08-24T22:19:23;9.40;;;6.40;;
57331;SDS011;43164;50.908;18.092;2023-08-24T22:22:00;12.10;;;6.60;;
57331;SDS011;43164;50.908;18.092;2023-08-24T22:24:30;9.00;;;6.30;;
57331;SDS011;43164;50.908;18.092;2023-08-24T22:30:22;9.80;;;5.90;;
57331;SDS011;43164;50.908;18.092;2023-08-24T22:32:50;12.40;;;6.10;;
57331;SDS011;43164;50.908;18.092;2023-08-24T22:35:19;8.90;;;5.60;;
57331;SDS011;43164;50.908;18.092;2023-08-24T22:37:48;9.00;;;5.50;;
57331;SDS011;43164;50.908;18.092;2023-08-24T22:40:17;11.10;;;6.00;;
57331;SDS011;43164;50.908;18.092;2023-08-24T22:42:49;9.50;;;6.00;;
57331;SDS011;43164;50.908;18.092;2023-08-24T22:52:20;8.30;;;5.20;;
57331;SDS011;43164;50.908;18.092;2023-08-24T22:54:49;8.40;;;5.20;;
57331;SDS011;43164;50.908;18.092;2023-08-24T22:57:18;9.80;;;5.00;;
57331;SDS011;43164;50.908;18.092;2023-08-24T22:59:47;7.80;;;4.60;;
57331;SDS011;43164;50.908;18.092;2023-08-24T23:05:14;7.40;;;4.80;;
57331;SDS011;43164;50.908;18.092;2023-08-24T23:07:43;8.70;;;4.70;;
57331;SDS011;43164;50.908;18.092;2023-08-24T23:10:11;8.30;;;5.30;;
57331;SDS011;43164;50.908;18.092;2023-08-24T23:12:42;8.50;;;5.00;;
57331;SDS011;43164;50.908;18.092;2023-08-24T23:18:24;7.40;;;5.40;;
57331;SDS011;43164;50.908;18.092;2023-08-24T23:20:53;7.40;;;4.90;;
57331;SDS011;43164;50.908;18.092;2023-08-24T23:23:22;8.80;;;5.30;;
57331;SDS011;43164;50.908;18.092;2023-08-24T23:25:51;8.40;;;5.50;;
57331;SDS011;43164;50.908;18.092;2023-08-24T23:28:19;8.40;;;5.50;;
57331;SDS011;43164;50.908;18.092;2023-08-24T23:30:48;9.10;;;6.20;;
57331;SDS011;43164;50.908;18.092;2023-08-24T23:33:16;9.10;;;6.60;;
57331;SDS011;43164;50.908;18.092;2023-08-24T23:39:26;8.90;;;6.00;;
57331;SDS011;43164;50.908;18.092;2023-08-24T23:42:01;8.20;;;5.80;;
57331;SDS011;43164;50.908;18.092;2023-08-24T23:44:30;9.10;;;6.10;;
57331;SDS011;43164;50.908;18.092;2023-08-24T23:46:58;9.00;;;5.70;;
57331;SDS011;43164;50.908;18.092;2023-08-24T23:49:26;9.70;;;5.60;;
57331;SDS011;43164;50.908;18.092;2023-08-24T23:51:54;8.10;;;5.70;;
57331;SDS011;43164;50.908;18.092;2023-08-24T23:54:23;8.80;;;5.70;;
57331;SDS011;43164;50.908;18.092;2023-08-24T23:56:51;8.80;;;6.30;;
57331;SDS011;43164;50.908;18.092;2023-08-24T23:59:19;8.50;;;5.90;;
